*** The Vicarage Weather Feed ***

Nearby METAR Reports


 

CYOO - Oshawa, Municipal Airport, Ontario, Canada
Distance from station: NW 3.2km
Updated: 30/03/2020 08:52
Light rain, Mist, Overcast
Light rain, Mist, Overcast
 Wind from WSW
Wind: WSW 11 km/h
Temperature: 6°C
Wind Chill: 4°C
Dew Point: 5°C
Humidity: 93%
Barometer: 1008.5 hPa
Summary: Light rain, Mist
Clouds: Overcast
Visibility: 10 km
Cloud details: Partly cloudy 640 m
Mostly cloudy 853 m
Mostly cloudy 1097 m
Overcast 1372 m
2020/03/30 12:52 CYOO 301252Z AUTO 25006KT 6SM -RA BR SCT021 BKN028 BKN036 OVC045 06/05 A2978 RMK SLP087
CYKZ - Toronto, Buttonville, Municipal Airport, Ontario, Canada
Distance from station: W 39.75km
Updated: 03/01/2019 04:00
NOT Current
Partly cloudy
Partly cloudy
 Wind from WSW
Wind: WSW 7 km/h
Temperature: -3°C
Wind Chill: -6°C
Dew Point: -5°C
Humidity: 86%
Barometer: 1010.8 hPa
Clouds: Partly cloudy
Visibility: 24 km
Cloud details: Partly cloudy 1219 m
2019/01/03 09:00 CYKZ 030900Z 25004KT 15SM SCT040 M03/M05 A2985 RMK SC3 LAST STFD OBS FAREWELL SLP118
 
CXTO - Toronto City, Buttonville, Ontario, Canada
Distance from station: WSW 49km
Updated: 30/03/2020 08:00

 
Temperature: 7°C
Dew Point: 3°C
Humidity: 76%
2020/03/30 12:00 CXTO 301200Z AUTO 07/03 RMK AO1 2PAST HR SOG 01 3021 SLP088 P0001 T00680028 50002
CYTZ - Toronto City, Island Airport, Ontario, Canada
Distance from station: SW 51.7km
Updated: 30/03/2020 08:00
Light rain, Overcast
Light rain, Overcast
 Wind from W
Wind: W 22 km/h, Gust: 33 km/h
Temperature: 7°C
Wind Chill: 4°C
Dew Point: 4°C
Humidity: 81%
Barometer: 1008.1 hPa
Summary: Light rain
Clouds: Overcast
Visibility: 14 km
Cloud details: Mostly cloudy 853 m
Overcast 1067 m
2020/03/30 12:00 CYTZ 301200Z AUTO 27012G18KT 9SM -RA BKN028 OVC035 07/04 A2977 RMK SLP085
 
CYPQ - Toronto, Peterborough Airport, Ontario, Canada
Distance from station: NE 54km
Updated: 30/03/2020 08:00
Light rain, Overcast
Light rain, Overcast
 Wind from SW
Wind: SW 7 km/h
Temperature: 6°C
Wind Chill: 4°C
Dew Point: 5°C
Humidity: 93%
Barometer: 1007.1 hPa
Summary: Light rain
Clouds: Overcast
Visibility: 14 km
Cloud details: Few Clouds 671 m
Partly cloudy 914 m
Mostly cloudy 1463 m
Overcast 1676 m
2020/03/30 12:00 CYPQ 301200Z AUTO 23004KT 200V260 9SM -RA FEW022 SCT030 BKN048 OVC055 06/05 A2974 RMK SLP078
CWNC - Cobourg, (mars), Ontario, Canada
Distance from station: E 57km
Updated: 30/03/2020 08:00

 Wind from W
Wind: W 7 km/h
Temperature: 5°C
Wind Chill: 3°C
Dew Point: 4°C
Humidity: 93%
2020/03/30 12:00 CWNC 301200Z AUTO 26004KT 05/04 RMK AO1 SLP082 T00510038 53014
 
CYYZ - Toronto, Lester Pearson Airport, Ontario, Canada
Distance from station: W 65.5km
Updated: 30/03/2020 08:47
Overcast
Overcast
 Wind from WSW
Wind: WSW 15 km/h
Temperature: 6°C
Wind Chill: 3°C
Dew Point: 4°C
Humidity: 87%
Barometer: 1008.5 hPa
Clouds: Overcast
Visibility: 24 km
Cloud details: Mostly cloudy 671 m
Overcast 1219 m
2020/03/30 12:47 CYYZ 301247Z 24008KT 15SM BKN022 OVC040 06/04 A2978 RMK SC7SC1 SLP090
CWGL - Lagoon City, Ontario, Canada
Distance from station: NNW 74km
Updated: 30/03/2020 08:00

 Wind from SSW
Wind: SSW 19 km/h
Temperature: 2°C
Wind Chill: -2°C
Dew Point: 2°C
Humidity: 100%
2020/03/30 12:00 CWGL 301200Z AUTO 21010KT 02/02 RMK AO1 SLP056 T00150016 53017
 
CWWZ - Port Weller Airport, Ontario, Canada
Distance from station: SSW 77km
Updated: 30/03/2020 08:00

 Wind from WSW
Wind: WSW 13 km/h
Temperature: 7°C
Wind Chill: 5°C
Dew Point: 4°C
Humidity: 81%
2020/03/30 12:00 CWWZ 301200Z AUTO 24007KT 07/04 RMK AO1 SLP088 T00690042 53017
CYSN - St.Catharines Niagara Airport, Ontario, Canada
Distance from station: SSW 81km
Updated: 30/03/2020 08:00
Light rain, Overcast
Light rain, Overcast
 Wind from WSW
Wind: WSW 22 km/h
Temperature: 7°C
Wind Chill: 4°C
Dew Point: 4°C
Humidity: 81%
Barometer: 1008.8 hPa
Summary: Light rain
Clouds: Overcast
Visibility: 24 km
Cloud details: Partly cloudy 853 m
Overcast 1158 m
2020/03/30 12:00 CYSN 301200Z 24012KT 15SM -RA SCT028 OVC038 07/04 A2979 RMK SC3SC5 SLP090
This data is offered only as a general guide to local weather conditions. It should not be relied upon in lieu of officially disseminated weather information for determining possible risk to persons or property. This site, including all information contained therein, is made available as is without warranties of any kind, either express or implied. The Vicarage Weather Feed© includes links to other sites for user convenience only. The content of any linked third-party site is not controlled by The Vicarage Weather Feed©. Access to any third-party website through The Vicarage Weather Feed©, regardless of whether or not the third-party site is a linked site, is entirely at the users own risk. Externally sourced content or material is excluded from The Vicarage Weather Feed© copyright and is the copyright and property of the respective provider. Skywarn® and the Skywarn® logo are registered trademarks of the National Oceanic and Atmospheric Administration, used with permission.